ADDS METAR Data INFO
IDs: Format: Raw Decoded Include TAF

Data at: 1841 UTC 17 Oct 2017

PATE 171756Z AUTO 02004KT 10SM BKN029 M01/M04 A2956 RMK AO2 SLP017 T10111039 11006 21011 55002 FZRANO
PATE 171656Z AUTO 07006KT 10SM OVC025 M01/M04 A2956 RMK AO2 SLP016 T10111039 FZRANO
PATE 171556Z AUTO 03008KT 10SM OVC023 M01/M04 A2956 RMK AO2 SLP017 T10061044 FZRANO
PATE 171456Z AUTO 03009KT 10SM OVC021 M01/M04 A2956 RMK AO2 SLP019 T10111039 55003 FZRANO
PATE 171356Z AUTO 02014KT 10SM OVC021 M01/M03 A2956 RMK AO2 SLP017 T10111033 FZRANO
PATE 171256Z AUTO 02015KT 10SM OVC021 M01/M03 A2956 RMK AO2 SLP018 T10061028 FZRANO
PATE 171156Z AUTO 03009KT 10SM OVC021 M01/M02 A2957 RMK AO2 SLP022 60000 T10111022 10000 21011 58004 FZRANO
PATE 171056Z AUTO 04006KT 10SM OVC019 M01/M02 A2958 RMK AO2 SLP025 T10111022 FZRANO
PATE 170956Z AUTO 05008KT 10SM OVC019 M01/M02 A2959 RMK AO2 UPB0859E11 SLP026 P0000 T10111017 FZRANO
PATE 170924Z AUTO 04008KT 10SM FEW009 OVC017 M01/M02 A2959 RMK AO2 UPB0859E11 P0000 FZRANO
PATE 170856Z AUTO 04008KT 10SM FEW010 OVC017 M01/M02 A2959 RMK AO2 UPB24E35SNB35E48 SLP026 P0000 60000 T10061017 400111011 51001 FZRANO
PATE 170841Z AUTO 05010KT 10SM -SN SCT010 OVC015 M01/M02 A2959 RMK AO2 UPB24E35SNB35 P0000 FZRANO
PATE 170832Z AUTO 05009KT 10SM UP BKN010 OVC015 M01/M02 A2959 RMK AO2 UPB24 CIG 008V013 P0000 FZRANO
PATE 170806Z AUTO 05009KT 10SM FEW008 OVC018 M01/M02 A2958 RMK AO2 FZRANO
PATE 170756Z AUTO 03008KT 10SM OVC018 M01/M02 A2959 RMK AO2 SLP026 T10061017 FZRANO
PATE 170737Z AUTO 04009KT 10SM SCT007 OVC018 M01/M02 A2958 RMK AO2 FZRANO
PATE 170656Z AUTO 04011KT 10SM BKN007 OVC017 M01/M01 A2958 RMK AO2 CIG 005V012 SLP025 T10061011 FZRANO
PATE 170637Z AUTO 06008KT 10SM BKN007 BKN011 OVC019 M01/M01 A2959 RMK AO2 CIG 005V010 FZRANO
PATE 170556Z AUTO 05011KT 10SM FEW008 OVC017 M01/M01 A2958 RMK AO2 UPB22E38 SLP025 P0000 60000 T10061011 10011 21006 58001 FZRANO
PATE 170540Z AUTO 07006KT 10SM SCT008 OVC017 M01/M01 A2958 RMK AO2 UPB22E38 P0000 FZRANO
PATE 170513Z AUTO 08005KT 10SM BKN008 OVC013 M01/M01 A2959 RMK AO2 CIG 005V009 FZRANO
PATE 170456Z AUTO 09004KT 10SM FEW008 OVC013 M01/M02 A2959 RMK AO2 UPE11SNB11E43 SLP026 P0000 T10061017 FZRANO
PATE 170446Z AUTO 11004KT 9SM SCT008 OVC015 M01/M02 A2959 RMK AO2 UPE11SNB11E43 P0000 FZRANO
PATE 170429Z AUTO 10004KT 7SM -SN BKN008 OVC015 M01/M01 A2959 RMK AO2 UPE11SNB11 CIG 005V010 P0000 FZRANO
PATE 170356Z AUTO 10005KT 9SM UP OVC010 M01/M02 A2959 RMK AO2 UPB07SNB43E55 SLP026 P0000 T10061017 FZRANO
PATE 170336Z AUTO 10005KT 9SM OVC010 00/M01 A2959 RMK AO2 UPB07E24 CIG 007V013 P0000 FZRANO
PATE 170320Z AUTO 09006KT 5SM UP BR OVC008 00/M01 A2959 RMK AO2 UPB07 CIG 005V011 P0000 FZRANO
PATE 170312Z AUTO 09005KT 2 1/2SM UP BR OVC008 00/M01 A2959 RMK AO2 VIS 1 1/2V5 UPB07 CIG 005V010 P0000 FZRANO
PATE 170256Z AUTO 10007KT 9SM BKN008 OVC013 00/M01 A2959 RMK AO2 UPB33E35RAB35E37SNB37E56 CIG 006V010 SLP026 P0000 60000 T00001011 56008 FZRANO
PATE 170242Z AUTO 11006KT 5SM -SN BR OVC011 01/M01 A2959 RMK AO2 UPB33E35RAB35E37SNB37 P0000 FZRANO
PATE 170213Z AUTO 11006KT 10SM OVC009 01/M01 A2959 RMK AO2 CIG 008V013 FZRANO
PATE 170156Z AUTO 12008KT 10SM OVC011 01/M01 A2959 RMK AO2 SLP028 T00111011 FZRANO
PATE 170056Z AUTO 11008KT 10SM OVC011 01/M01 A2960 RMK AO2 SLP030 T00111011 FZRANO
PATE 170044Z AUTO 08008KT 10SM OVC011 01/M01 A2961 RMK AO2 FZRANO
PATE 170021Z AUTO 09008KT 10SM OVC009 01/M02 A2961 RMK AO2 FZRANO
PATE 162356Z AUTO 08008KT 10SM OVC011 01/M02 A2961 RMK AO2 SLP033 T00061017 10006 21011 50000 FZRANO
PATE 162256Z AUTO 08007KT 10SM OVC011 01/M02 A2961 RMK AO2 SLP035 T00061017 FZRANO
PATE 162156Z AUTO 08006KT 10SM BKN013 01/M02 A2961 RMK AO2 SLP033 T00061022 FZRANO
PATE 162154Z AUTO 09007KT 10SM BKN013 01/M02 A2961 RMK AO2 FZRANO
PATE 162129Z AUTO 08007KT 10SM SCT013 00/M02 A2961 RMK AO2 FZRANO
PATE 162056Z AUTO 10006KT 10SM OVC013 00/M02 A2961 RMK AO2 SLP034 T00001017 51004 FZRANO
PATE 162044Z AUTO 09007KT 10SM BKN013 00/M02 A2961 RMK AO2 FZRANO
PATE 162008Z AUTO 09006KT 10SM SCT013 M01/M02 A2961 RMK AO2 FZRANO
PATE 161956Z AUTO 06006KT 10SM BKN013 M01/M02 A2961 RMK AO2 SLP034 T10061022 FZRANO
PATE 161856Z AUTO 08007KT 10SM OVC013 M01/M02 A2960 RMK AO2 SLP032 T10111022 FZRANO
PATE 161756Z AUTO 09007KT 10SM OVC013 M01/M02 A2960 RMK AO2 SLP031 T10111022 10006 21011 53000 FZRANO
PATE 161656Z AUTO 08006KT 10SM OVC011 M01/M02 A2960 RMK AO2 SLP031 T10061017 FZRANO
PATE 161608Z AUTO 09007KT 10SM OVC011 M01/M01 A2960 RMK AO2 FZRANO
PATE 161556Z AUTO 10007KT 10SM OVC009 M01/M01 A2960 RMK AO2 CIG 008V012 SLP029 T10061011 FZRANO
PATE 161526Z AUTO 08008KT 10SM FEW003 OVC009 M01/M01 A2960 RMK AO2 CIG 007V012 FZRANO
PATE 161505Z AUTO 10006KT 9SM FEW003 OVC011 M01/M01 A2960 RMK AO2 CIG 006V013 FZRANO
PATE 161456Z AUTO 11006KT 7SM OVC011 M01/M01 A2960 RMK AO2 CIG 006V013 SLP029 T10061011 52000 FZRANO
PATE 161419Z AUTO 11007KT 10SM OVC011 M01/M01 A2960 RMK AO2 FZRANO
PATE 161356Z AUTO 10006KT 10SM OVC009 00/M01 A2960 RMK AO2 CIG 008V014 SLP030 T00001011 FZRANO
PATE 161256Z AUTO 10005KT 10SM OVC013 00/M01 A2960 RMK AO2 SLP029 T00001011 FZRANO
PATE 161156Z AUTO 08007KT 10SM OVC011 00/M01 A2960 RMK AO2 SLP029 T00001006 10006 21006 51003 FZRANO
PATE 161056Z AUTO 07007KT 10SM OVC011 01/M01 A2960 RMK AO2 SLP029 T00061011 FZRANO
PATE 160956Z AUTO 10007KT 10SM OVC013 01/M01 A2959 RMK AO2 SLP028 T00061011 FZRANO
PATE 160856Z AUTO 10007KT 10SM OVC013 01/M01 A2959 RMK AO2 SLP026 T00061011 400391017 53006 FZRANO
PATE 160756Z AUTO 09007KT 10SM BKN013 00/M01 A2958 RMK AO2 SLP023 T00001011 FZRANO
PATE 160656Z AUTO 11007KT 10SM CLR M01/M02 A2957 RMK AO2 SLP022 T10061017 FZRANO